Northboro, Iowa
Current Conditions -  °F | °C
As of 12:15 PM on Wednesday 26 Nov 2014 (Local Time) from KSDA Reporting Station
Overcast Overcast  
Wind Chill: 23°   Ceiling: 1300
Heat Index: 34°   Visibility: 10mi
Dew Point: 30°   Wind: 17mph
Humidity: 87%   Direction: 320°NW
Pressure: 30.04"   Gusts: 28mph
Location:  40.61°N, 95.29°W
Report Text: KSDA 261815Z AUTO 32015G24KT 10SM OVC013 01/M01 A3004 RMK AO2
Loading
Personal Weather Stations






























Interactive Weather Map New forecast layout! Learn more

10-Day Weather Forecast

Advertisements
Track Severe Weather on mobile